Time;durP1;ratioP1;P1;durP2;ratioP2;P2;SDS_P1;SDS_P2;PMS_P1;PMS_P2;Temp;Humidity;BMP_temperature;BMP_pressure;BME280_temperature;BME280_humidity;BME280_pressure;Samples;Min_cycle;Max_cycle;Signal;HPM_P1;HPM_P2
2021/04/18 00:02:36;;;;;;;11.52;4.95;;;;;;;6.48;79.44;102022.69;6250173;28;20552;-71
2021/04/18 00:05:37;;;;;;;13.75;4.07;;;;;;;6.48;79.62;102016.63;6250013;28;20053;-71
2021/04/18 00:08:38;;;;;;;9.50;4.32;;;;;;;6.43;80.04;102014.06;6249952;28;20045;-71
2021/04/18 00:11:39;;;;;;;10.90;4.38;;;;;;;6.39;80.57;102009.78;6249812;28;20053;-71
2021/04/18 00:14:40;;;;;;;10.60;4.82;;;;;;;6.32;80.14;102014.25;6249790;28;20591;-71
2021/04/18 00:17:41;;;;;;;7.78;4.18;;;;;;;6.33;79.17;102010.75;6249526;28;20053;-71
2021/04/18 00:20:42;;;;;;;8.13;3.97;;;;;;;6.31;78.72;102004.72;6249802;28;20132;-71
2021/04/18 00:23:43;;;;;;;7.93;3.85;;;;;;;6.33;77.71;102012.50;6249277;28;20049;-71
2021/04/18 00:26:44;;;;;;;11.98;4.40;;;;;;;6.27;78.37;102003.03;6249633;28;20136;-72
2021/04/18 00:29:46;;;;;;;10.48;4.13;;;;;;;6.29;77.54;102001.25;6249467;28;20187;-71
2021/04/18 00:32:48;;;;;;;14.45;4.00;;;;;;;6.29;79.47;102003.00;6250207;28;20057;-71
2021/04/18 00:35:49;;;;;;;13.02;4.57;;;;;;;6.22;79.84;101996.13;6249770;28;20125;-71
2021/04/18 00:38:50;;;;;;;10.15;4.55;;;;;;;6.20;79.85;101992.69;6249313;28;20049;-72
2021/04/18 00:41:50;;;;;;;8.68;3.88;;;;;;;6.18;79.25;101989.25;6249394;28;20056;-71
2021/04/18 00:44:52;;;;;;;16.25;4.32;;;;;;;6.08;80.09;101996.34;6248820;28;20049;-71
2021/04/18 00:47:54;;;;;;;11.20;3.75;;;;;;;6.04;80.99;101989.44;6249085;28;20049;-71
2021/04/18 00:50:55;;;;;;;7.25;3.78;;;;;;;6.00;80.78;101987.78;6248858;28;20056;-71
2021/04/18 00:53:56;;;;;;;9.80;4.20;;;;;;;5.96;80.79;101983.47;6248893;28;20053;-71
2021/04/18 00:56:57;;;;;;;10.18;3.97;;;;;;;5.95;80.80;101979.13;6248805;28;20041;-71
2021/04/18 00:59:59;;;;;;;10.57;3.85;;;;;;;5.92;81.19;101972.22;6248954;28;20049;-71
2021/04/18 01:03:00;;;;;;;13.32;4.40;;;;;;;5.91;80.91;101975.69;6248498;28;20049;-71
2021/04/18 01:06:02;;;;;;;10.75;4.28;;;;;;;5.86;80.79;101964.47;6248728;28;20421;-71
2021/04/18 01:09:03;;;;;;;11.57;4.10;;;;;;;5.83;80.20;101964.50;6248793;28;20050;-70
2021/04/18 01:12:05;;;;;;;14.80;3.75;;;;;;;5.97;77.38;101956.50;6248332;28;20103;-72
2021/04/18 01:15:11;;;;;;;7.72;3.63;;;;;;;5.87;79.76;101958.34;6248351;28;20049;-69
2021/04/18 01:18:11;;;;;;;12.88;4.00;;;;;;;5.95;79.41;101966.06;6248119;28;20046;-72
2021/04/18 01:21:14;;;;;;;7.70;3.75;;;;;;;5.93;80.29;101958.28;6248275;28;20061;-71
2021/04/18 01:24:14;;;;;;;8.02;3.80;;;;;;;5.93;80.91;101968.72;6247961;28;20113;-72
2021/04/18 01:27:17;;;;;;;10.68;4.05;;;;;;;5.93;81.23;101966.13;6239810;28;20037;-70
2021/04/18 01:30:21;;;;;;;11.43;3.72;;;;;;;5.95;81.39;101971.28;6236323;28;20046;-70
2021/04/18 01:33:22;;;;;;;8.95;4.03;;;;;;;6.03;80.88;101959.88;6246594;28;20053;-70
2021/04/18 01:36:24;;;;;;;13.10;4.25;;;;;;;6.07;80.61;101958.09;6247895;28;20045;-69
2021/04/18 01:39:25;;;;;;;12.75;3.22;;;;;;;6.04;79.75;101948.56;6240976;28;20049;-71
2021/04/18 01:42:27;;;;;;;7.72;3.72;;;;;;;6.06;78.97;101965.06;6238794;28;20514;-71
2021/04/18 01:45:29;;;;;;;7.90;3.60;;;;;;;6.02;79.91;101971.19;6247545;28;20387;-71
2021/04/18 01:48:30;;;;;;;6.75;4.07;;;;;;;6.09;82.03;101966.75;6247389;28;20080;-72
2021/04/18 01:51:32;;;;;;;9.48;4.32;;;;;;;6.10;82.28;101950.22;6247102;28;20572;-72
2021/04/18 01:54:33;;;;;;;9.50;3.92;;;;;;;6.09;81.40;101949.34;6247217;28;20076;-72
2021/04/18 01:57:34;;;;;;;12.80;4.25;;;;;;;6.07;81.40;101955.47;6247569;28;20104;-71
2021/04/18 02:00:36;;;;;;;9.48;3.78;;;;;;;6.08;80.10;101962.41;6247191;28;20049;-71
2021/04/18 02:03:36;;;;;;;9.75;4.20;;;;;;;6.15;80.00;101963.19;6247611;28;20049;-72
2021/04/18 02:06:38;;;;;;;11.32;3.78;;;;;;;6.19;79.80;101957.03;6247285;28;20080;-69
2021/04/18 02:09:39;;;;;;;16.77;4.07;;;;;;;6.28;79.66;101942.09;6246994;28;20421;-70
2021/04/18 02:12:40;;;;;;;14.77;4.25;;;;;;;6.38;78.94;101948.03;6247449;28;20085;-70
2021/04/18 02:15:41;;;;;;;10.68;3.83;;;;;;;6.45;76.93;101936.59;6246880;28;20107;-69
2021/04/18 02:18:41;;;;;;;10.48;3.83;;;;;;;6.49;75.25;101946.06;6247112;28;20046;-70
2021/04/18 02:21:43;;;;;;;9.73;4.15;;;;;;;6.39;78.25;101948.88;6246901;28;20045;-70
2021/04/18 02:24:44;;;;;;;9.30;3.85;;;;;;;6.39;76.04;101949.72;6247041;28;20052;-70
2021/04/18 02:27:45;;;;;;;9.65;3.35;;;;;;;6.38;76.32;101978.50;6246780;28;20081;-69
2021/04/18 02:30:46;;;;;;;13.07;5.22;;;;;;;6.25;79.18;101968.22;6247239;28;20162;-69
2021/04/18 02:33:47;;;;;;;13.52;4.53;;;;;;;6.44;77.58;101960.09;6246680;28;20056;-70
2021/04/18 02:36:48;;;;;;;11.40;4.32;;;;;;;6.21;78.29;101960.47;6246559;28;20508;-70
2021/04/18 02:39:49;;;;;;;14.88;4.57;;;;;;;6.14;78.88;101964.94;6246824;28;20045;-69
2021/04/18 02:42:50;;;;;;;15.25;4.75;;;;;;;6.23;79.20;101970.03;6240268;28;20069;-70
2021/04/18 02:45:51;;;;;;;9.82;4.63;;;;;;;6.09;79.60;101972.84;6229849;28;20189;-70
2021/04/18 02:48:52;;;;;;;12.75;4.68;;;;;;;6.17;79.24;101971.84;6262091;23;20049;-70
2021/04/18 02:51:54;;;;;;;11.93;4.38;;;;;;;6.13;78.48;101976.25;6270834;28;20118;-70
2021/04/18 02:54:55;;;;;;;13.90;4.75;;;;;;;6.10;78.55;101974.56;6246163;28;20417;-70
2021/04/18 02:57:56;;;;;;;16.20;6.65;;;;;;;6.21;77.26;101971.78;6257213;28;20048;-70
2021/04/18 03:00:57;;;;;;;12.02;5.03;;;;;;;6.12;77.10;101971.06;6246607;28;20060;-70
2021/04/18 03:03:57;;;;;;;17.48;5.32;;;;;;;6.09;78.51;101970.22;6250920;28;20060;-70
2021/04/18 03:06:59;;;;;;;11.63;6.00;;;;;;;6.09;79.46;101959.78;6251485;28;20128;-70
2021/04/18 03:10:00;;;;;;;13.88;5.28;;;;;;;6.17;78.54;101961.41;6251403;28;20070;-70
2021/04/18 03:13:01;;;;;;;7.90;4.70;;;;;;;6.12;77.62;101958.00;6251063;28;20050;-70
2021/04/18 03:16:02;;;;;;;11.18;5.00;;;;;;;6.09;77.69;101953.72;6251275;28;20525;-70
2021/04/18 03:19:03;;;;;;;17.42;5.45;;;;;;;6.18;78.59;101955.31;6251077;28;20533;-70
2021/04/18 03:22:06;;;;;;;10.30;4.75;;;;;;;6.22;77.87;101946.53;6251299;28;20057;-70
2021/04/18 03:25:08;;;;;;;15.02;5.30;;;;;;;6.18;78.09;101943.13;6250699;28;20547;-70
2021/04/18 03:28:08;;;;;;;11.77;5.25;;;;;;;6.18;79.01;101945.75;6251265;28;20049;-70
2021/04/18 03:31:09;;;;;;;12.38;4.93;;;;;;;6.29;78.79;101937.72;6250959;28;20049;-70
2021/04/18 03:34:10;;;;;;;14.85;4.80;;;;;;;6.34;79.21;101941.13;6250577;28;20077;-70
2021/04/18 03:37:12;;;;;;;18.65;6.28;;;;;;;6.28;77.47;101943.84;6250867;28;20045;-70
2021/04/18 03:40:14;;;;;;;12.90;5.10;;;;;;;6.31;77.60;101941.16;6250818;28;20052;-70
2021/04/18 03:43:15;;;;;;;8.43;4.80;;;;;;;6.19;78.51;101942.25;6250489;28;20052;-70
2021/04/18 03:46:15;;;;;;;15.05;5.05;;;;;;;6.09;79.91;101953.72;6250409;28;20478;-70
2021/04/18 03:49:16;;;;;;;14.23;5.85;;;;;;;6.10;80.88;101947.59;6250419;28;20060;-70
2021/04/18 03:52:18;;;;;;;13.20;5.50;;;;;;;6.19;81.04;101942.25;6250340;28;20115;-70
2021/04/18 03:55:19;;;;;;;17.85;6.30;;;;;;;6.25;79.40;101936.06;6250397;28;20049;-70
2021/04/18 03:58:20;;;;;;;10.77;4.80;;;;;;;6.17;79.56;101937.91;6250222;28;20529;-70
2021/04/18 04:01:21;;;;;;;16.52;5.50;;;;;;;6.19;78.85;101934.41;6250139;28;20073;-70
2021/04/18 04:04:22;;;;;;;9.60;5.03;;;;;;;6.20;79.30;101930.03;6250057;28;20076;-70
2021/04/18 04:07:23;;;;;;;10.82;5.25;;;;;;;6.12;79.44;101934.53;6249830;28;20054;-70
2021/04/18 04:10:24;;;;;;;13.07;5.10;;;;;;;6.12;79.14;101929.31;6250161;28;20072;-70
2021/04/18 04:13:25;;;;;;;17.55;5.78;;;;;;;6.08;81.10;101936.31;6248988;28;20516;-71
2021/04/18 04:16:26;;;;;;;13.45;5.80;;;;;;;6.13;80.74;101942.31;6249504;28;20124;-70
2021/04/18 04:19:27;;;;;;;11.98;5.38;;;;;;;6.14;81.84;101954.50;6231467;28;20052;-70
2021/04/18 04:22:29;;;;;;;15.73;5.18;;;;;;;6.20;80.19;101958.75;6241307;28;20045;-70
2021/04/18 04:25:30;;;;;;;13.57;4.97;;;;;;;6.15;82.22;101957.97;6236690;28;20065;-70
2021/04/18 04:28:31;;;;;;;11.25;5.70;;;;;;;6.21;81.44;101948.28;6249766;28;20053;-70
2021/04/18 04:31:32;;;;;;;14.57;5.75;;;;;;;6.25;81.15;101956.94;6242785;28;20076;-70
2021/04/18 04:34:33;;;;;;;12.27;6.03;;;;;;;6.25;82.24;101955.19;6240800;28;20054;-70
2021/04/18 04:37:34;;;;;;;12.00;5.88;;;;;;;6.24;81.33;101961.28;6249586;28;20045;-70
2021/04/18 04:40:35;;;;;;;10.02;5.55;;;;;;;6.24;81.17;101953.47;6249467;28;20060;-70
2021/04/18 04:43:36;;;;;;;11.43;6.00;;;;;;;6.25;82.21;101955.19;6249178;28;20413;-70
2021/04/18 04:46:37;;;;;;;10.95;5.57;;;;;;;6.33;81.72;101960.28;6249142;28;20136;-70
2021/04/18 04:49:38;;;;;;;16.27;6.00;;;;;;;6.32;81.29;101969.00;6248998;28;20095;-70
2021/04/18 04:52:39;;;;;;;18.92;6.20;;;;;;;6.47;80.41;101968.75;6248967;28;20095;-70
2021/04/18 04:55:42;;;;;;;20.20;6.45;;;;;;;6.33;81.06;101968.97;6244629;28;20046;-70
2021/04/18 04:58:43;;;;;;;17.17;6.65;;;;;;;6.35;81.95;101971.56;6242325;28;20069;-70
2021/04/18 05:01:44;;;;;;;14.93;6.22;;;;;;;6.36;82.30;101975.91;6248924;28;20053;-70
2021/04/18 05:04:45;;;;;;;14.55;5.72;;;;;;;6.35;82.97;101975.03;6248701;28;20057;-70
2021/04/18 05:07:46;;;;;;;14.05;6.05;;;;;;;6.39;82.41;101962.78;6248416;28;20045;-70
2021/04/18 05:10:48;;;;;;;10.48;5.57;;;;;;;6.49;81.67;101971.31;6248846;28;20053;-70
2021/04/18 05:13:49;;;;;;;14.43;5.35;;;;;;;6.50;81.53;101981.78;6248271;28;20498;-70
2021/04/18 05:16:49;;;;;;;20.13;6.10;;;;;;;6.47;82.89;101973.97;6248569;28;20087;-70
2021/04/18 05:19:50;;;;;;;15.70;6.30;;;;;;;6.41;83.25;101974.09;6248300;28;20136;-70
2021/04/18 05:22:52;;;;;;;16.98;7.03;;;;;;;6.37;82.27;101982.00;6248218;28;20077;-70
2021/04/18 05:25:53;;;;;;;14.95;5.70;;;;;;;6.32;81.96;101984.69;6247243;28;20120;-70
2021/04/18 05:28:55;;;;;;;10.45;5.88;;;;;;;6.25;83.11;101985.66;6248035;28;20057;-70
2021/04/18 05:31:55;;;;;;;17.98;6.00;;;;;;;6.22;83.18;101986.56;6248213;28;20049;-70
2021/04/18 05:34:56;;;;;;;11.88;5.90;;;;;;;6.22;83.75;101983.97;6247706;28;20056;-70
2021/04/18 05:37:58;;;;;;;11.90;5.82;;;;;;;6.27;83.24;101976.91;6248031;28;20065;-70
2021/04/18 05:40:59;;;;;;;18.35;6.35;;;;;;;6.23;82.91;101980.47;6247705;28;20072;-70
2021/04/18 05:44:00;;;;;;;12.63;6.03;;;;;;;6.24;84.00;101976.97;6247669;28;20045;-70
2021/04/18 05:47:01;;;;;;;16.92;6.88;;;;;;;6.28;83.30;101977.78;6247566;28;20402;-70
2021/04/18 05:50:03;;;;;;;21.20;6.88;;;;;;;6.32;84.18;101977.72;6247477;28;20049;-70
2021/04/18 05:53:05;;;;;;;19.88;6.63;;;;;;;6.35;84.61;101971.56;6247444;28;20058;-70
2021/04/18 05:56:06;;;;;;;15.38;7.00;;;;;;;6.44;84.21;101973.16;6247662;28;20164;-70
2021/04/18 05:59:07;;;;;;;14.68;6.70;;;;;;;6.54;84.08;101973.00;6247421;28;20107;-70
2021/04/18 06:02:08;;;;;;;18.08;6.82;;;;;;;6.67;83.84;101967.53;6247359;28;20049;-70
2021/04/18 06:05:10;;;;;;;18.85;7.25;;;;;;;6.74;83.18;101977.00;6247243;28;20049;-70
2021/04/18 06:08:12;;;;;;;14.20;6.32;;;;;;;6.78;82.01;101982.16;6247166;28;20505;-70
2021/04/18 06:11:12;;;;;;;16.70;7.15;;;;;;;6.83;82.71;101976.84;6247351;28;20053;-70
2021/04/18 06:14:13;;;;;;;18.55;7.57;;;;;;;6.88;83.35;101976.75;6246933;28;20053;-70
2021/04/18 06:17:14;;;;;;;21.17;6.95;;;;;;;7.01;83.72;101976.50;6247266;28;20525;-70
2021/04/18 06:20:15;;;;;;;17.27;6.88;;;;;;;7.23;81.82;101978.72;6247003;28;20429;-70
2021/04/18 06:23:17;;;;;;;21.88;7.40;;;;;;;7.27;82.13;101980.38;6246926;28;20124;-70
2021/04/18 06:26:18;;;;;;;21.08;7.07;;;;;;;7.38;81.58;101975.78;6247043;28;20050;-70
2021/04/18 06:29:19;;;;;;;15.43;7.80;;;;;;;7.20;81.36;101977.00;6247066;28;20049;-70
2021/04/18 06:32:20;;;;;;;13.52;6.70;;;;;;;7.16;82.39;101980.56;6246808;28;20128;-70
2021/04/18 06:35:20;;;;;;;14.00;6.75;;;;;;;7.10;83.42;101983.31;6246700;28;20052;-71
2021/04/18 06:38:22;;;;;;;19.25;6.65;;;;;;;7.10;82.17;101980.69;6246521;28;20506;-70
2021/04/18 06:41:24;;;;;;;14.77;6.82;;;;;;;7.05;83.85;101978.19;6247012;28;20045;-70
2021/04/18 06:44:25;;;;;;;20.20;7.15;;;;;;;7.12;83.72;101979.75;6246529;28;20060;-70
2021/04/18 06:47:26;;;;;;;15.52;7.25;;;;;;;7.18;83.31;101975.34;6246758;28;20137;-70
2021/04/18 06:50:27;;;;;;;22.08;7.20;;;;;;;7.32;83.09;101979.38;6246292;28;20107;-70
2021/04/18 06:53:29;;;;;;;17.58;6.82;;;;;;;7.35;83.29;101976.69;6246200;28;20520;-70
2021/04/18 06:56:30;;;;;;;21.77;7.53;;;;;;;7.49;82.96;101971.19;6246812;28;20045;-70
2021/04/18 06:59:35;;;;;;;21.83;7.28;;;;;;;7.55;81.19;101964.97;6246413;28;20417;-70
2021/04/18 07:02:37;;;;;;;18.83;7.38;;;;;;;7.55;80.40;101970.22;6246701;28;20060;-70
2021/04/18 07:05:46;;;;;;;15.98;6.80;;;;;;;7.50;81.86;101970.31;6246404;28;20049;-70
2021/04/18 07:08:57;;;;;;;15.65;6.75;;;;;;;7.57;81.12;101969.28;6246425;28;20489;-70
2021/04/18 07:12:02;;;;;;;24.08;7.07;;;;;;;7.52;82.32;101962.41;6246463;28;20056;-70
2021/04/18 07:15:04;;;;;;;22.20;7.68;;;;;;;7.61;83.37;101976.16;6238092;28;20426;-70
2021/04/18 07:18:06;;;;;;;20.33;7.10;;;;;;;7.78;80.63;101965.34;6236535;28;20042;-70
2021/04/18 07:21:07;;;;;;;14.20;6.68;;;;;;;7.76;80.50;101972.34;6239152;28;20049;-71
2021/04/18 07:24:09;;;;;;;16.63;7.75;;;;;;;7.53;81.63;101961.53;6233602;28;20049;-71
2021/04/18 07:27:10;;;;;;;20.05;7.47;;;;;;;7.53;81.31;101961.53;6229514;28;20058;-71
2021/04/18 07:30:13;;;;;;;16.75;7.65;;;;;;;7.56;81.55;101954.47;6233471;28;20052;-71
2021/04/18 07:33:14;;;;;;;18.88;8.02;;;;;;;7.57;81.64;101950.09;6230828;28;20046;-71
2021/04/18 07:36:18;;;;;;;16.55;8.05;;;;;;;7.51;83.09;101953.72;6221460;28;20489;-70
2021/04/18 07:39:20;;;;;;;20.50;7.75;;;;;;;7.71;82.08;101953.28;6221464;28;20136;-70
2021/04/18 07:42:31;;;;;;;18.02;7.50;;;;;;;7.55;82.06;101955.38;6228757;28;20054;-71
2021/04/18 07:45:33;;;;;;;21.80;7.65;;;;;;;7.51;83.90;101956.34;6234557;28;20060;-70
2021/04/18 07:48:34;;;;;;;18.92;8.45;;;;;;;7.56;84.76;101956.22;6233947;28;20056;-70
2021/04/18 07:51:35;;;;;;;20.58;8.15;;;;;;;7.70;84.49;101959.41;6229105;28;20065;-70
2021/04/18 07:54:37;;;;;;;20.45;7.88;;;;;;;7.82;81.34;101956.53;6236829;28;20397;-70
2021/04/18 07:57:38;;;;;;;17.20;8.43;;;;;;;7.82;82.38;101953.06;6232140;28;20060;-70
2021/04/18 08:00:39;;;;;;;20.65;7.80;;;;;;;7.70;82.64;101950.69;6232586;28;20559;-70
2021/04/18 08:03:43;;;;;;;23.55;8.98;;;;;;;7.74;82.99;101955.84;6231550;28;20046;-70
2021/04/18 08:06:44;;;;;;;19.25;8.43;;;;;;;7.82;83.20;101959.16;6225701;28;20133;-71
2021/04/18 08:09:46;;;;;;;27.85;9.98;;;;;;;7.96;83.15;101961.44;6225247;28;20103;-70
2021/04/18 08:13:00;;;;;;;16.17;7.63;;;;;;;8.03;81.11;101962.16;6225432;28;20054;-70
2021/04/18 08:16:04;;;;;;;20.65;7.65;;;;;;;8.13;80.44;101958.44;6249814;28;20057;-70
2021/04/18 08:19:07;;;;;;;20.63;8.43;;;;;;;8.25;81.05;101957.28;6249690;28;20046;-70
2021/04/18 08:22:08;;;;;;;15.45;7.60;;;;;;;8.31;80.38;101954.50;6249710;28;20053;-70
2021/04/18 08:25:10;;;;;;;23.60;8.82;;;;;;;8.30;81.13;101947.53;6249172;28;20099;-70
2021/04/18 08:28:13;;;;;;;17.92;8.07;;;;;;;8.40;80.72;101949.06;6249377;28;20498;-72
2021/04/18 08:31:14;;;;;;;21.88;7.90;;;;;;;8.57;79.56;101948.66;6238160;28;20104;-71
2021/04/18 08:34:18;;;;;;;17.08;7.95;;;;;;;8.75;77.76;101947.31;6224359;28;20133;-71
2021/04/18 08:37:21;;;;;;;15.65;8.05;;;;;;;8.54;80.03;101953.97;6225031;28;20057;-73
2021/04/18 08:40:31;;;;;;;15.57;7.95;;;;;;;8.58;80.38;101953.88;6224471;28;20161;-73
2021/04/18 08:43:32;;;;;;;19.05;7.95;;;;;;;8.63;79.05;101961.63;6237683;28;20497;-73
2021/04/18 08:46:34;;;;;;;21.25;8.18;;;;;;;8.66;79.05;101958.03;6234320;28;20053;-72
2021/04/18 08:49:37;;;;;;;17.25;8.57;;;;;;;8.63;79.67;101949.38;6234913;28;20059;-72
2021/04/18 08:52:38;;;;;;;17.73;9.02;;;;;;;8.57;79.95;101952.13;6232668;28;20050;-73
2021/04/18 08:55:52;;;;;;;15.88;8.30;;;;;;;8.71;79.75;101956.16;6276084;22;20064;-70
2021/04/18 08:58:53;;;;;;;22.63;10.30;;;;;;;8.85;78.08;101954.88;6265583;28;20060;-71
2021/04/18 09:01:59;;;;;;;24.50;9.00;;;;;;;8.86;79.52;101956.63;6253394;28;20081;-70
2021/04/18 09:05:02;;;;;;;17.33;8.75;;;;;;;8.88;80.41;101954.81;6237396;28;20109;-70
2021/04/18 09:08:03;;;;;;;23.58;9.55;;;;;;;9.24;77.86;101962.56;6224184;28;20068;-71
2021/04/18 09:11:06;;;;;;;16.58;8.75;;;;;;;9.16;77.71;101959.28;6224009;28;20132;-71
2021/04/18 09:14:07;;;;;;;22.85;8.60;;;;;;;9.17;78.36;101950.50;6223794;28;20417;-71
2021/04/18 09:17:10;;;;;;;20.02;8.93;;;;;;;9.40;77.43;101956.00;6223813;28;20133;-71
2021/04/18 09:20:16;;;;;;;21.10;9.15;;;;;;;9.39;76.48;101948.16;6223946;28;20054;-71
2021/04/18 09:23:17;;;;;;;18.35;8.20;;;;;;;9.49;77.78;101948.72;6223383;28;20050;-71
2021/04/18 09:26:18;;;;;;;26.25;8.35;;;;;;;9.76;75.87;101953.16;6223114;28;20418;-71
2021/04/18 09:29:21;;;;;;;20.00;8.07;;;;;;;9.55;76.94;101948.56;6237508;28;20049;-71
2021/04/18 09:32:24;;;;;;;21.10;9.70;;;;;;;9.64;76.55;101954.41;6237236;28;20041;-71
2021/04/18 09:35:28;;;;;;;25.00;9.55;;;;;;;9.64;76.65;101950.91;6235690;28;20053;-71
2021/04/18 09:38:31;;;;;;;25.55;9.00;;;;;;;10.03;76.51;101953.19;6233837;28;20057;-70
2021/04/18 09:41:36;;;;;;;16.33;7.65;;;;;;;10.61;72.93;101932.94;6244730;28;20069;-70
2021/04/18 09:44:43;;;;;;;20.88;8.13;;;;;;;10.70;71.36;101934.38;6229277;28;20049;-70
2021/04/18 09:47:46;;;;;;;24.05;9.30;;;;;;;10.43;73.79;101934.41;6238189;28;20049;-70
2021/04/18 09:50:59;;;;;;;31.20;9.48;;;;;;;10.40;74.21;101938.00;6235904;28;20084;-70
2021/04/18 09:54:01;;;;;;;17.20;7.60;;;;;;;10.68;72.23;101933.59;6222041;28;20590;-70
2021/04/18 09:57:20;;;;;;;21.55;8.60;;;;;;;10.38;72.37;101931.94;6232047;28;20045;-70
2021/04/18 10:00:25;;;;;;;18.77;8.10;;;;;;;10.51;74.15;101931.53;6246082;28;20046;-70
2021/04/18 10:03:33;;;;;;;19.65;7.90;;;;;;;10.70;72.61;101929.97;6222391;28;20050;-71
2021/04/18 10:06:44;;;;;;;19.02;8.00;;;;;;;10.59;72.95;101927.72;6222670;28;20054;-71
2021/04/18 10:09:51;;;;;;;17.17;8.68;;;;;;;10.72;73.66;101922.03;6222861;28;20050;-71
2021/04/18 10:12:53;;;;;;;18.95;8.57;;;;;;;10.70;73.99;101918.59;6224814;28;20068;-71
2021/04/18 10:15:55;;;;;;;17.30;7.90;;;;;;;10.97;72.57;101927.28;6246894;28;20061;-71
2021/04/18 10:19:10;;;;;;;26.05;8.32;;;;;;;11.17;70.03;101919.50;6246617;28;20052;-71
2021/04/18 10:22:11;;;;;;;20.05;8.07;;;;;;;11.11;73.89;101925.88;6224701;28;20037;-71
2021/04/18 10:25:13;;;;;;;19.05;7.80;;;;;;;11.25;71.99;101916.59;6242498;28;20095;-71
2021/04/18 10:28:15;;;;;;;18.80;7.75;;;;;;;11.41;71.32;101923.03;6238312;28;20394;-73
2021/04/18 10:31:17;;;;;;;19.75;8.75;;;;;;;11.53;70.74;101926.94;6243164;28;20050;-73
2021/04/18 10:34:18;;;;;;;17.77;8.23;;;;;;;11.62;70.98;101924.81;6236389;28;20533;-72
2021/04/18 10:37:19;;;;;;;19.83;8.73;;;;;;;11.79;70.17;101920.66;6246773;28;20050;-71
2021/04/18 10:40:22;;;;;;;15.32;7.65;;;;;;;11.77;70.17;101904.94;6246723;28;20057;-72
2021/04/18 10:43:24;;;;;;;17.48;7.57;;;;;;;11.92;69.62;101895.59;6246592;28;20103;-72
2021/04/18 10:46:25;;;;;;;19.50;8.02;;;;;;;12.03;70.54;101900.41;6246692;28;20049;-71
2021/04/18 10:49:27;;;;;;;19.48;7.93;;;;;;;12.08;69.52;101896.69;6227992;28;20061;-71
2021/04/18 10:52:28;;;;;;;22.48;8.43;;;;;;;12.08;68.34;101888.78;6234060;28;20050;-71
2021/04/18 10:55:29;;;;;;;17.92;8.48;;;;;;;12.16;68.32;101897.22;6245294;28;20332;-71
2021/04/18 10:58:30;;;;;;;18.70;8.35;;;;;;;12.24;67.52;101896.03;6246400;28;20410;-71
2021/04/18 11:01:31;;;;;;;22.48;8.70;;;;;;;12.28;69.33;101882.66;6246024;28;20053;-72
2021/04/18 11:04:32;;;;;;;18.70;8.05;;;;;;;12.53;66.40;101871.06;6245850;28;20100;-72
2021/04/18 11:07:33;;;;;;;17.98;8.68;;;;;;;12.71;67.24;101883.44;6246307;28;20077;-77
2021/04/18 11:10:34;;;;;;;18.40;7.68;;;;;;;12.70;65.30;101887.88;6246186;28;20124;-72
2021/04/18 11:13:35;;;;;;;19.83;7.47;;;;;;;12.88;67.27;101874.78;6245066;28;20050;-72
2021/04/18 11:16:36;;;;;;;20.63;7.40;;;;;;;13.24;66.55;101874.06;6245711;28;20061;-73
2021/04/18 11:19:37;;;;;;;18.75;7.72;;;;;;;13.44;62.28;101876.63;6246115;28;20049;-72
2021/04/18 11:22:39;;;;;;;15.60;6.72;;;;;;;13.43;63.47;101869.63;6245772;28;20052;-73
2021/04/18 11:25:40;;;;;;;14.05;7.05;;;;;;;13.65;64.61;101872.97;6249575;28;20060;-73
2021/04/18 11:28:41;;;;;;;14.95;6.97;;;;;;;13.87;62.74;101866.66;6250704;28;20045;-71
2021/04/18 11:31:44;;;;;;;18.02;7.30;;;;;;;14.00;60.40;101866.91;6250833;28;20049;-71
2021/04/18 11:34:45;;;;;;;13.98;6.20;;;;;;;14.01;62.50;101869.47;6249877;28;20049;-71
2021/04/18 11:37:47;;;;;;;15.35;6.30;;;;;;;14.17;59.87;101865.13;6250841;28;20052;-71
2021/04/18 11:40:48;;;;;;;16.52;6.93;;;;;;;14.17;60.97;101859.84;6250607;28;20110;-71
2021/04/18 11:43:50;;;;;;;12.25;5.97;;;;;;;14.50;60.45;101861.72;6249487;28;20045;-70
2021/04/18 11:46:50;;;;;;;14.85;6.75;;;;;;;14.78;59.92;101858.47;6250361;28;20047;-70
2021/04/18 11:49:51;;;;;;;16.42;6.97;;;;;;;14.98;59.71;101862.69;6250302;28;20095;-71
2021/04/18 11:52:52;;;;;;;20.38;6.45;;;;;;;15.50;55.88;101859.84;6249654;28;20653;-71
2021/04/18 11:55:53;;;;;;;14.88;5.90;;;;;;;15.48;55.37;101857.25;6249934;28;20056;-70
2021/04/18 11:58:55;;;;;;;13.80;6.15;;;;;;;15.67;56.04;101856.28;6250236;28;20045;-71
2021/04/18 12:01:56;;;;;;;11.65;5.85;;;;;;;15.67;55.05;101857.13;6249581;28;20541;-72
2021/04/18 12:04:56;;;;;;;14.30;6.25;;;;;;;16.12;54.97;101854.53;6249485;28;20053;-71
2021/04/18 12:07:57;;;;;;;12.73;5.80;;;;;;;16.31;52.13;101841.91;6249840;28;20045;-71
2021/04/18 12:10:58;;;;;;;16.38;5.75;;;;;;;15.62;54.18;101847.69;6248981;28;20089;-72
2021/04/18 12:14:00;;;;;;;12.85;5.63;;;;;;;15.17;56.94;101844.88;6234266;28;20064;-72
2021/04/18 12:17:01;;;;;;;11.70;5.78;;;;;;;15.18;55.50;101840.44;6239839;28;20049;-72
2021/04/18 12:20:04;;;;;;;10.85;5.05;;;;;;;14.97;55.47;101831.88;6225199;28;20077;-72
2021/04/18 12:23:06;;;;;;;18.88;6.25;;;;;;;15.01;57.27;101837.84;6224396;28;20108;-72
2021/04/18 12:26:06;;;;;;;13.48;5.75;;;;;;;15.37;55.63;101841.13;6225063;28;20103;-73
2021/04/18 12:29:08;;;;;;;8.75;5.18;;;;;;;15.30;56.24;101828.28;6228817;28;20045;-73
2021/04/18 12:32:09;;;;;;;13.57;5.20;;;;;;;15.77;56.81;101835.41;6244707;28;20045;-72
2021/04/18 12:35:11;;;;;;;9.98;4.47;;;;;;;16.26;56.19;101835.16;6238752;28;21043;-72
2021/04/18 12:38:12;;;;;;;9.82;5.15;;;;;;;16.49;54.89;101824.88;6238906;28;20580;-72
2021/04/18 12:41:13;;;;;;;10.25;5.18;;;;;;;16.35;52.01;101821.31;6248113;28;20054;-72
2021/04/18 12:44:14;;;;;;;14.73;4.95;;;;;;;16.05;52.50;101819.56;6234615;28;20052;-73
2021/04/18 12:47:15;;;;;;;12.07;5.53;;;;;;;15.82;54.82;101825.38;6240384;28;20053;-72
2021/04/18 12:50:16;;;;;;;12.10;4.85;;;;;;;15.79;55.94;101825.53;6243529;28;20513;-72
2021/04/18 12:53:17;;;;;;;9.30;4.90;;;;;;;15.88;54.60;101823.22;6248813;28;20097;-73
2021/04/18 12:56:18;;;;;;;12.05;5.28;;;;;;;16.39;53.49;101821.03;6248005;28;20045;-73
2021/04/18 12:59:20;;;;;;;17.85;4.90;;;;;;;16.66;51.69;101813.19;6233802;28;20042;-72
2021/04/18 13:02:22;;;;;;;8.82;4.53;;;;;;;16.84;53.00;101810.38;6235607;28;20180;-73
2021/04/18 13:05:23;;;;;;;10.05;4.40;;;;;;;16.61;52.60;101815.28;6232901;28;20049;-72
2021/04/18 13:08:23;;;;;;;30.70;4.72;;;;;;;16.43;53.71;101819.06;6235432;28;20524;-72
2021/04/18 13:11:24;;;;;;;14.20;4.85;;;;;;;16.11;53.74;101805.09;6249027;28;20050;-72
2021/04/18 13:14:26;;;;;;;12.50;5.18;;;;;;;15.98;53.09;101805.81;6248672;28;20049;-72
2021/04/18 13:17:28;;;;;;;9.98;4.00;;;;;;;16.13;54.01;101805.88;6248471;28;20045;-73
2021/04/18 13:20:29;;;;;;;8.88;4.45;;;;;;;16.18;53.67;101798.50;6242646;28;20054;-72
2021/04/18 13:23:30;;;;;;;10.55;4.40;;;;;;;16.21;51.77;101807.13;6223565;28;20046;-72
2021/04/18 13:26:31;;;;;;;7.15;4.38;;;;;;;16.12;51.14;101799.69;6228130;28;20406;-72
2021/04/18 13:29:32;;;;;;;9.57;4.40;;;;;;;15.98;55.11;101799.66;6226271;28;20049;-74
2021/04/18 13:32:33;;;;;;;11.45;4.57;;;;;;;15.91;54.27;101796.53;6231231;28;20049;-73
2021/04/18 13:35:34;;;;;;;8.77;4.07;;;;;;;15.91;52.11;101796.53;6237834;28;20696;-73
2021/04/18 13:38:35;;;;;;;21.52;10.65;;;;;;;15.83;53.36;101800.56;6239750;28;20057;-72
2021/04/18 13:41:36;;;;;;;12.50;4.97;;;;;;;15.74;54.23;101801.97;6239471;28;20441;-72
2021/04/18 13:44:38;;;;;;;11.63;4.55;;;;;;;15.80;53.97;101803.41;6247597;28;20052;-72
2021/04/18 13:47:39;;;;;;;11.50;5.00;;;;;;;16.01;53.45;101799.50;6247092;28;20048;-72
2021/04/18 13:50:40;;;;;;;9.95;5.47;;;;;;;16.30;51.65;101794.22;6247798;28;20057;-72
2021/04/18 13:53:41;;;;;;;14.52;5.20;;;;;;;16.61;51.90;101796.72;6247255;28;20493;-72
2021/04/18 13:56:42;;;;;;;10.73;5.05;;;;;;;16.46;50.90;101790.56;6247255;28;20505;-73
2021/04/18 13:59:45;;;;;;;10.35;5.38;;;;;;;16.49;51.17;101792.19;6243956;28;20053;-73
2021/04/18 14:02:46;;;;;;;15.30;5.95;;;;;;;16.90;48.22;101776.34;6234283;28;20069;-71
2021/04/18 14:05:46;;;;;;;7.75;4.80;;;;;;;17.26;50.07;101785.56;6221993;28;20069;-72